Bexhill, United Kingdom
Current Conditions -  °F | °C
As of 4:20 PM on Saturday 25 Oct 2014 (Local Time) from EGMD Reporting Station
Broken Clouds Broken Clouds  
Wind Chill: 59°   Ceiling: 4400
Heat Index: 59°   Visibility: 6mi
Dew Point: 50°   Wind: 9mph
Humidity: 72%   Direction: 250°WSW
Pressure: 30.12"   Gusts: NA
Location:  50.85°N, 0.47°E
Report Text: EGMD 251520Z 25008KT 9999 FEW022 BKN044 15/10 Q1020
Loading
Personal Weather Stations






























Interactive Weather Map New forecast layout! Learn more

10-Day Weather Forecast

Advertisements
Track Severe Weather on mobile